空の公差-Tolerance-

航空写真家 瀬尾 央(せお ひろし)氏による月刊「航空ファン」の連載記事、『 Light & Flight 』に中学生の頃出会い、触発され、写真撮影とプロペラ単発機での飛行を趣味として、空の写真、空からの写真を撮り続けています。 2004年には自費出版の写真集「空の公差-Tolerance-」(エアワークス刊,ISBN9784902113037)を作りました。

2019年01月

表紙になりました

管制協会発行の「航空管制2018年1月号」の表紙になり
ました。記事ではペーパークラフトの紹介をしてみました。

2019010DSCN0299航空管制表紙SM
もう少し富士山に雪が欲しい感じです

戻りました

午前中に仕事を終わらせすぐ帰国です。
復路はぐでたまジェットでした。CAにお願いしたら
枕カバーとトランプをお土産にくれました。

20190128DSCN0328EvaairB19205A320neo桃園SM
色ガラス&汚れで汚い写真になってしまいます

20190128DSCN0333Tiger_air_taiwan_B50005_A320SM
チャイナエアラインのLCC、タイガーエア台湾

20190128DSCN0336ロイヤルブルネイA320-200N_V8-RBD桃園SM
今年3月から成田便も開設するロイヤルブルネイ航空

台湾出張1泊2日

今年初の海外出張は台湾1泊2日です。
桃園は意外と寒くて上着が必要でした。
往路は新しいB787で隣も空席だし座席も良くて快適
でした。夜はいつもの桃園の夜市へ行って食事です。
日曜だからなのか、旧正月前の盛り上がりなのか
人手は多いようでした。

20190127DSCN0306Eva-airB787-9SM
往路は昨年12月に就航したB787-9です

20190127DSCN0301N404KZSM
元日本貨物航空のN404KZ

20190127DSCN0321桃園夜市SM
ちょっぴり旧正月モード?

表紙になりました

今年も表紙になりました。
来年(撮影は今年でしょうが)もできるかな・・・・・

20190125DSCN0276AOPA表紙SM
雲で富士山が小さくなってしまったのが残念

A36TCで新島へ

桶川 → RJAN  1000-1050 (0+50) A36TC
RJAN →  桶川    1315-1400 (0+45) A36TC

穏やかな気候の中を新島へ行ってきました。

20190119DSC_4339JA4179新島SM
ドルニエの2便以外は外来機も無いようです

20190119DSC_4321羽伏浦海岸SM
羽伏浦海岸に行ってみました。無人です

20190119DSC_4335湯の浜露天温泉SM
湯の浜露天温泉も無人です


RJAN 190700Z 28019KT 9999 SCT040 12/02 Q1018
RMK A3008=

ぽつりぽつりと降り出した中、午後の定位置の仕事
場に戻ると、誰かが虹だ!
というので窓の外を見ると出ていました。

20190115DSCN0267虹SM
割と濃い虹です。得した気分です


江戸東京たてもの園

二度目の江戸東京たてもの園に行ってきました。
成人の日のイベントで人力車が走っていて乗る
ことができました。

20190114DSC_4234東京たてもの園SM
奥に見えるのが銭湯だった建物です

20190114DSC_4260東京たてもの園SM
人力車に初乗車です

DSC_412320190114DSC_4123東京たてもの園SM
古民家では囲炉裏を囲みさくら茶をいただきました

A36TCとA36ボナンザ(エアライン訓練機仕様)の型紙

例年2月と3月は仕事がら精神的に余裕がなくなり
ます。気分転換用に作っておきました。

A36TCについている機首の空気取り入れ口を追加し、
翼端や胴体尾部を後期型仕様に変えました。
そうするとA36の後期型もできるのでついでにエア
ラインの訓練機仕様も作ってみました。

20190113BE-A36TC-Rev001(JA4179Rev2)SM
最近お世話になっているA36TC


20190112BE-A36-Rev012IFTA-N810NHSM
2014年に閉鎖になったANAの訓練所の機体

20190112JAL鶴丸-N8190G-Rev3)SM
2010年に閉鎖になったJALの訓練所の機体

2019年飛行はじめと洗機

桶川 LCL     1010-1045 (0+35)  A36TC
桶川 LCL     1130-1220 (0+50)  A36TC

Kさんと1回づつローカルで飛んで飛行はじめと機体洗い
をしてきました。関東平野のみ穏やかで大島も静岡も風
が吹いていました。帰りには温泉に寄って体もスッキリ
しました。

昨年末の飛行でログブックが1冊終わったこともあり
約5年振りにログブックの計算をしたらこの着陸が飛行機
の1400回目でした。グライダー等も入れると1886回です。

20190105DSC_3958お台場全景SM
お台場全景

20190105DSC_3972JA4179洗機後SM
飛んだ後に機体洗い。ワックスがけしてツヤがでました

RJTY 050256Z AUTO 15003KT 10SM CLR 12/M03 A2988
RMK AO2 SLP127 T01161030 57035 FZRANO $
RJTY 050156Z AUTO 00000KT 10SM CLR 11/M03 A2992
RMK AO2 SLP141 T01071034 FZRANO $
RJTY 050056Z AUTO 00000KT 10SM CLR 09/M03 A2996
RMK AO2 SLP155 T00941035 FZRANO $

あけましておめでとうございます

皆様あけましておめでとうございます。
本年もよろしくお願いいたします。

2019年年賀状DSC_6956-2名前無SM
記事検索
月別アーカイブ
プロフィール

soranokousa

タグクラウド
QRコード
QRコード
  • ライブドアブログ